Sir Henry — DYIL — position and weather

sailwx.info

Track history (hours):
 
Tides and Currents Weather Stations Pressure Air Temp Water Temp Dewpoint Dewpoint Depression Visibility Wind Speed Wind Dir Waves Ship Positions

Sir Henry

Last reported at 2015-May-27 12:10 UTC. Time now 2015-May-30 10:25 UTC.
Position N 49°55' W 000°02'.

Length 148 m; draft 5.3 m.

Type: Cargo ship. MMSI: 548718000.

Date/timePositionNaut miles runAvg speedWind from/ knotsBaromVisibWave heightAir tempDewpointWater temp
2015-May-27 12:10N 49°55' W 000°02'0 0.0
2015-May-27 11:28N 49°55' W 000°02'0 0.0
2015-May-27 09:03N 49°55' W 000°02'0 0.0
2015-May-27 08:21N 49°55' W 000°02'0 0.0
2015-May-27 07:18N 49°55' W 000°02'0 0.0
2015-May-27 06:09N 49°55' W 000°02'0 0.0
2015-May-27 00:15N 49°55' W 000°02'0 0.0
2015-May-26 23:24N 49°55' W 000°02'0 0.1
2015-May-26 22:12N 49°55' W 000°02'0 0.0
2015-May-26 21:15N 49°55' W 000°02'0 0.0
2015-May-26 20:33N 49°56' W 000°02'0 0.1
2015-May-26 19:33N 49°55' W 000°02'0 0.0
2015-May-26 10:24N 49°55' W 000°02'0 0.0
2015-May-26 07:30N 49°55' W 000°02'0 0.0
2015-May-26 06:18N 49°55' W 000°02'0 0.0
2015-May-26 05:30N 49°55' W 000°02'0 0.0
2015-May-26 01:26N 49°56' W 000°02'10 8.1
2015-May-26 00:10N 49°56' W 000°17'812.6
2015-May-25 23:32N 49°57' W 000°30'1312.2
2015-May-25 22:28N 49°58' W 000°50'1611.3
2015-May-25 21:05N 50°00' W 001°14'20011.1
2015-May-25 03:07N 48°31' W 005°48'2111.2
2015-May-25 01:13N 48°13' W 006°03'811.2
2015-May-25 00:31N 48°06' W 006°09'1111.1
2015-May-24 23:32N 47°56' W 006°16'45310.5
2015-May-23 04:28N 40°49' W 009°48'6 6.9
2015-May-23 03:33N 40°43' W 009°48'8 6.4
2015-May-23 02:21N 40°35' W 009°49'8 6.4
2015-May-23 01:05N 40°27' W 009°49'4 6.9
2015-May-23 00:33N 40°23' W 009°49'7 6.7
2015-May-22 23:33N 40°16' W 009°49'7 7.3
2015-May-22 22:33N 40°09' W 009°50'8 8.4
2015-May-22 21:33N 40°01' W 009°50'9 9.2
2015-May-22 20:33N 39°51' W 009°50'9 9.5
2015-May-22 19:33N 39°42' W 009°51'10 9.8
2015-May-22 18:33N 39°32' W 009°50'13 9.4
2015-May-22 17:08N 39°19' W 009°50'6 9.4
2015-May-22 16:33N 39°13' W 009°50'9 9.3
2015-May-22 15:33N 39°04' W 009°51'9 9.1
2015-May-22 14:33N 38°55' W 009°51'9 9.2
2015-May-22 13:33N 38°46' W 009°51'8 8.4
2015-May-22 12:33N 38°38' W 009°49'8 8.6
2015-May-22 11:33N 38°29' W 009°47'8 8.3
2015-May-22 10:33N 38°21' W 009°44'9 9.2
2015-May-22 09:33N 38°13' W 009°41'10 9.5
2015-May-22 08:33N 38°03' W 009°38'10 9.6
2015-May-22 07:33N 37°54' W 009°36'9 9.4
2015-May-22 06:34N 37°45' W 009°34'1110.5
2015-May-22 05:33N 37°34' W 009°32'1010.3
2015-May-22 04:33N 37°24' W 009°29'1010.0
2015-May-22 03:33N 37°14' W 009°26'1010.3
2015-May-22 02:33N 37°05' W 009°23'1210.8
2015-May-22 01:29N 36°53' W 009°18'1010.5
2015-May-22 00:33N 36°46' W 009°11'1110.8
2015-May-21 23:33N 36°42' W 008°58'1211.8
2015-May-21 22:33N 36°38' W 008°44'1212.3
2015-May-21 21:33N 36°34' W 008°30'1212.4
2015-May-21 20:33N 36°30' W 008°15'14012.4
2015-May-21 09:17N 35°60' W 005°26'912.0
2015-May-21 08:33N 36°04' W 005°16'116 6.4
2015-May-20 14:32N 36°20' W 002°54'1313.2
2015-May-20 13:33N 36°23' W 002°38'1313.2
2015-May-20 12:32N 36°25' W 002°22'1312.7
2015-May-20 11:33N 36°29' W 002°07'5813.3
2015-May-20 07:09N 37°08' W 001°13'813.8
2015-May-20 06:33N 37°14' W 001°05'1413.7
2015-May-20 05:33N 37°22' W 000°51'1413.9
2015-May-20 04:33N 37°31' W 000°38'1313.5
2015-May-20 03:33N 37°41' W 000°27'1413.6
2015-May-20 02:33N 37°53' W 000°18'  
2015-May-17 12:12N 41°22' E 002°10'  
Track history (hours):
 
Tides and Currents Weather Stations Pressure Air Temp Water Temp Dewpoint Dewpoint Depression Visibility Wind Speed Wind Dir Waves Ship Positions

Sir Henry

Last reported at 2015-May-27 12:10 UTC. Time now 2015-May-30 10:25 UTC.
Position N 49°55' W 000°02'.

Length 148 m; draft 5.3 m.

Type: Cargo ship. MMSI: 548718000.

Date/timePositionNaut miles runAvg speedWind from/ knotsBaromVisibWave heightAir tempDewpointWater temp
2015-May-27 12:10N 49°55' W 000°02'0 0.0
2015-May-27 11:28N 49°55' W 000°02'0 0.0
2015-May-27 09:03N 49°55' W 000°02'0 0.0
2015-May-27 08:21N 49°55' W 000°02'0 0.0
2015-May-27 07:18N 49°55' W 000°02'0 0.0
2015-May-27 06:09N 49°55' W 000°02'0 0.0
2015-May-27 00:15N 49°55' W 000°02'0 0.0
2015-May-26 23:24N 49°55' W 000°02'0 0.1
2015-May-26 22:12N 49°55' W 000°02'0 0.0
2015-May-26 21:15N 49°55' W 000°02'0 0.0
2015-May-26 20:33N 49°56' W 000°02'0 0.1
2015-May-26 19:33N 49°55' W 000°02'0 0.0
2015-May-26 10:24N 49°55' W 000°02'0 0.0
2015-May-26 07:30N 49°55' W 000°02'0 0.0
2015-May-26 06:18N 49°55' W 000°02'0 0.0
2015-May-26 05:30N 49°55' W 000°02'0 0.0
2015-May-26 01:26N 49°56' W 000°02'10 8.1
2015-May-26 00:10N 49°56' W 000°17'812.6
2015-May-25 23:32N 49°57' W 000°30'1312.2
2015-May-25 22:28N 49°58' W 000°50'1611.3
2015-May-25 21:05N 50°00' W 001°14'20011.1
2015-May-25 03:07N 48°31' W 005°48'2111.2
2015-May-25 01:13N 48°13' W 006°03'811.2
2015-May-25 00:31N 48°06' W 006°09'1111.1
2015-May-24 23:32N 47°56' W 006°16'45310.5
2015-May-23 04:28N 40°49' W 009°48'6 6.9
2015-May-23 03:33N 40°43' W 009°48'8 6.4
2015-May-23 02:21N 40°35' W 009°49'8 6.4
2015-May-23 01:05N 40°27' W 009°49'4 6.9
2015-May-23 00:33N 40°23' W 009°49'7 6.7
2015-May-22 23:33N 40°16' W 009°49'7 7.3
2015-May-22 22:33N 40°09' W 009°50'8 8.4
2015-May-22 21:33N 40°01' W 009°50'9 9.2
2015-May-22 20:33N 39°51' W 009°50'9 9.5
2015-May-22 19:33N 39°42' W 009°51'10 9.8
2015-May-22 18:33N 39°32' W 009°50'13 9.4
2015-May-22 17:08N 39°19' W 009°50'6 9.4
2015-May-22 16:33N 39°13' W 009°50'9 9.3
2015-May-22 15:33N 39°04' W 009°51'9 9.1
2015-May-22 14:33N 38°55' W 009°51'9 9.2
2015-May-22 13:33N 38°46' W 009°51'8 8.4
2015-May-22 12:33N 38°38' W 009°49'8 8.6
2015-May-22 11:33N 38°29' W 009°47'8 8.3
2015-May-22 10:33N 38°21' W 009°44'9 9.2
2015-May-22 09:33N 38°13' W 009°41'10 9.5
2015-May-22 08:33N 38°03' W 009°38'10 9.6
2015-May-22 07:33N 37°54' W 009°36'9 9.4
2015-May-22 06:34N 37°45' W 009°34'1110.5
2015-May-22 05:33N 37°34' W 009°32'1010.3
2015-May-22 04:33N 37°24' W 009°29'1010.0
2015-May-22 03:33N 37°14' W 009°26'1010.3
2015-May-22 02:33N 37°05' W 009°23'1210.8
2015-May-22 01:29N 36°53' W 009°18'1010.5
2015-May-22 00:33N 36°46' W 009°11'1110.8
2015-May-21 23:33N 36°42' W 008°58'1211.8
2015-May-21 22:33N 36°38' W 008°44'1212.3
2015-May-21 21:33N 36°34' W 008°30'1212.4
2015-May-21 20:33N 36°30' W 008°15'14012.4
2015-May-21 09:17N 35°60' W 005°26'912.0
2015-May-21 08:33N 36°04' W 005°16'116 6.4
2015-May-20 14:32N 36°20' W 002°54'1313.2
2015-May-20 13:33N 36°23' W 002°38'1313.2
2015-May-20 12:32N 36°25' W 002°22'1312.7
2015-May-20 11:33N 36°29' W 002°07'5813.3
2015-May-20 07:09N 37°08' W 001°13'813.8
2015-May-20 06:33N 37°14' W 001°05'1413.7
2015-May-20 05:33N 37°22' W 000°51'1413.9
2015-May-20 04:33N 37°31' W 000°38'1313.5
2015-May-20 03:33N 37°41' W 000°27'1413.6
2015-May-20 02:33N 37°53' W 000°18'  
2015-May-17 12:12N 41°22' E 002°10'  

Dump ship's entire track history